sensor_id;sensor_type;location;lat;lon;timestamp;P1;durP1;ratioP1;P2;durP2;ratioP2
6023;SDS011;3040;42.654;23.296;2023-08-30T00:01:22;9.37;;;8.83;;
6023;SDS011;3040;42.654;23.296;2023-08-30T00:03:48;10.60;;;9.73;;
6023;SDS011;3040;42.654;23.296;2023-08-30T00:06:15;10.57;;;9.27;;
6023;SDS011;3040;42.654;23.296;2023-08-30T00:08:42;9.17;;;8.33;;
6023;SDS011;3040;42.654;23.296;2023-08-30T00:11:10;8.67;;;8.17;;
6023;SDS011;3040;42.654;23.296;2023-08-30T00:13:37;9.67;;;8.70;;
6023;SDS011;3040;42.654;23.296;2023-08-30T00:16:03;8.63;;;8.17;;
6023;SDS011;3040;42.654;23.296;2023-08-30T00:18:30;7.07;;;6.63;;
6023;SDS011;3040;42.654;23.296;2023-08-30T00:20:57;6.60;;;6.20;;
6023;SDS011;3040;42.654;23.296;2023-08-30T00:23:24;6.77;;;6.30;;
6023;SDS011;3040;42.654;23.296;2023-08-30T00:25:51;6.73;;;6.33;;
6023;SDS011;3040;42.654;23.296;2023-08-30T00:28:19;6.87;;;6.20;;
6023;SDS011;3040;42.654;23.296;2023-08-30T00:30:46;7.37;;;5.67;;
6023;SDS011;3040;42.654;23.296;2023-08-30T00:33:12;5.97;;;5.47;;
6023;SDS011;3040;42.654;23.296;2023-08-30T00:35:39;6.17;;;5.77;;
6023;SDS011;3040;42.654;23.296;2023-08-30T00:38:06;6.10;;;5.60;;
6023;SDS011;3040;42.654;23.296;2023-08-30T00:40:37;6.10;;;5.37;;
6023;SDS011;3040;42.654;23.296;2023-08-30T00:43:05;7.63;;;5.97;;
6023;SDS011;3040;42.654;23.296;2023-08-30T00:45:33;6.67;;;6.17;;
6023;SDS011;3040;42.654;23.296;2023-08-30T00:48:04;5.90;;;5.60;;
6023;SDS011;3040;42.654;23.296;2023-08-30T00:50:31;6.83;;;6.27;;
6023;SDS011;3040;42.654;23.296;2023-08-30T00:52:59;6.43;;;5.87;;
6023;SDS011;3040;42.654;23.296;2023-08-30T00:55:30;6.80;;;6.30;;
6023;SDS011;3040;42.654;23.296;2023-08-30T00:57:58;7.83;;;7.07;;
6023;SDS011;3040;42.654;23.296;2023-08-30T01:00:25;6.67;;;6.13;;
6023;SDS011;3040;42.654;23.296;2023-08-30T01:02:54;6.97;;;6.30;;
6023;SDS011;3040;42.654;23.296;2023-08-30T01:05:21;7.90;;;6.30;;
6023;SDS011;3040;42.654;23.296;2023-08-30T01:07:48;6.57;;;6.07;;
6023;SDS011;3040;42.654;23.296;2023-08-30T01:10:15;7.43;;;6.23;;
6023;SDS011;3040;42.654;23.296;2023-08-30T01:12:43;6.57;;;6.07;;
6023;SDS011;3040;42.654;23.296;2023-08-30T01:15:14;6.67;;;6.30;;
6023;SDS011;3040;42.654;23.296;2023-08-30T01:17:44;8.63;;;5.70;;
6023;SDS011;3040;42.654;23.296;2023-08-30T01:20:16;6.43;;;6.03;;
6023;SDS011;3040;42.654;23.296;2023-08-30T01:22:47;7.03;;;6.33;;
6023;SDS011;3040;42.654;23.296;2023-08-30T01:25:26;6.77;;;6.30;;
6023;SDS011;3040;42.654;23.296;2023-08-30T01:28:01;6.87;;;6.37;;
6023;SDS011;3040;42.654;23.296;2023-08-30T01:30:31;7.10;;;5.47;;
6023;SDS011;3040;42.654;23.296;2023-08-30T01:32:59;6.07;;;5.67;;
6023;SDS011;3040;42.654;23.296;2023-08-30T01:35:27;6.33;;;5.70;;
6023;SDS011;3040;42.654;23.296;2023-08-30T01:37:57;5.67;;;5.30;;
6023;SDS011;3040;42.654;23.296;2023-08-30T01:40:25;6.00;;;5.50;;
6023;SDS011;3040;42.654;23.296;2023-08-30T01:42:54;5.60;;;5.30;;
6023;SDS011;3040;42.654;23.296;2023-08-30T01:45:23;5.63;;;5.13;;
6023;SDS011;3040;42.654;23.296;2023-08-30T01:47:52;5.53;;;4.93;;
6023;SDS011;3040;42.654;23.296;2023-08-30T01:50:20;5.40;;;5.07;;
6023;SDS011;3040;42.654;23.296;2023-08-30T01:52:48;5.90;;;5.40;;
6023;SDS011;3040;42.654;23.296;2023-08-30T01:55:15;6.20;;;5.73;;
6023;SDS011;3040;42.654;23.296;2023-08-30T01:57:46;6.67;;;5.57;;
6023;SDS011;3040;42.654;23.296;2023-08-30T02:00:13;5.33;;;4.93;;
6023;SDS011;3040;42.654;23.296;2023-08-30T02:02:42;5.63;;;5.43;;
6023;SDS011;3040;42.654;23.296;2023-08-30T02:05:09;8.53;;;6.00;;
6023;SDS011;3040;42.654;23.296;2023-08-30T02:07:39;6.30;;;5.90;;
6023;SDS011;3040;42.654;23.296;2023-08-30T02:10:10;5.57;;;5.17;;
6023;SDS011;3040;42.654;23.296;2023-08-30T02:12:46;6.17;;;5.73;;
6023;SDS011;3040;42.654;23.296;2023-08-30T02:15:14;6.33;;;5.73;;
6023;SDS011;3040;42.654;23.296;2023-08-30T02:17:44;6.73;;;5.00;;
6023;SDS011;3040;42.654;23.296;2023-08-30T02:20:12;5.87;;;5.43;;
6023;SDS011;3040;42.654;23.296;2023-08-30T02:22:38;7.23;;;6.63;;
6023;SDS011;3040;42.654;23.296;2023-08-30T02:25:05;5.73;;;4.53;;
6023;SDS011;3040;42.654;23.296;2023-08-30T02:27:33;8.23;;;5.93;;
6023;SDS011;3040;42.654;23.296;2023-08-30T02:30:00;5.90;;;5.40;;
6023;SDS011;3040;42.654;23.296;2023-08-30T02:32:27;9.07;;;5.80;;
6023;SDS011;3040;42.654;23.296;2023-08-30T02:34:56;5.47;;;5.13;;
6023;SDS011;3040;42.654;23.296;2023-08-30T02:37:23;5.93;;;5.63;;
6023;SDS011;3040;42.654;23.296;2023-08-30T02:39:50;6.43;;;5.47;;
6023;SDS011;3040;42.654;23.296;2023-08-30T02:42:17;7.27;;;6.60;;
6023;SDS011;3040;42.654;23.296;2023-08-30T02:44:44;6.70;;;6.20;;
6023;SDS011;3040;42.654;23.296;2023-08-30T02:47:10;8.17;;;6.37;;
6023;SDS011;3040;42.654;23.296;2023-08-30T02:49:37;6.83;;;6.27;;
6023;SDS011;3040;42.654;23.296;2023-08-30T02:52:06;7.27;;;6.40;;
6023;SDS011;3040;42.654;23.296;2023-08-30T02:54:33;6.63;;;5.90;;
6023;SDS011;3040;42.654;23.296;2023-08-30T02:56:59;6.23;;;5.77;;
6023;SDS011;3040;42.654;23.296;2023-08-30T02:59:26;6.23;;;5.80;;
6023;SDS011;3040;42.654;23.296;2023-08-30T03:01:53;7.17;;;5.57;;
6023;SDS011;3040;42.654;23.296;2023-08-30T03:04:20;7.27;;;5.47;;
6023;SDS011;3040;42.654;23.296;2023-08-30T03:06:46;6.07;;;5.47;;
6023;SDS011;3040;42.654;23.296;2023-08-30T03:09:15;5.63;;;5.23;;
6023;SDS011;3040;42.654;23.296;2023-08-30T03:11:41;6.73;;;5.67;;
6023;SDS011;3040;42.654;23.296;2023-08-30T03:14:08;6.70;;;5.90;;
6023;SDS011;3040;42.654;23.296;2023-08-30T03:16:35;9.37;;;5.43;;
6023;SDS011;3040;42.654;23.296;2023-08-30T03:19:02;5.90;;;5.50;;
6023;SDS011;3040;42.654;23.296;2023-08-30T03:21:29;5.97;;;5.40;;
6023;SDS011;3040;42.654;23.296;2023-08-30T03:23:55;12.77;;;5.73;;
6023;SDS011;3040;42.654;23.296;2023-08-30T03:26:26;6.50;;;5.80;;
6023;SDS011;3040;42.654;23.296;2023-08-30T03:28:53;10.17;;;5.60;;
6023;SDS011;3040;42.654;23.296;2023-08-30T03:31:20;11.77;;;5.47;;
6023;SDS011;3040;42.654;23.296;2023-08-30T03:33:48;6.03;;;5.53;;
6023;SDS011;3040;42.654;23.296;2023-08-30T03:36:16;8.43;;;5.80;;
6023;SDS011;3040;42.654;23.296;2023-08-30T03:38:44;6.13;;;5.63;;
6023;SDS011;3040;42.654;23.296;2023-08-30T03:41:11;5.57;;;5.17;;
6023;SDS011;3040;42.654;23.296;2023-08-30T03:43:40;9.70;;;5.67;;
6023;SDS011;3040;42.654;23.296;2023-08-30T03:46:06;7.33;;;6.00;;
6023;SDS011;3040;42.654;23.296;2023-08-30T03:48:34;6.07;;;5.53;;
6023;SDS011;3040;42.654;23.296;2023-08-30T03:51:01;7.50;;;5.13;;
6023;SDS011;3040;42.654;23.296;2023-08-30T03:53:28;9.67;;;5.70;;
6023;SDS011;3040;42.654;23.296;2023-08-30T03:55:55;7.70;;;5.97;;
6023;SDS011;3040;42.654;23.296;2023-08-30T03:58:22;8.23;;;6.00;;
6023;SDS011;3040;42.654;23.296;2023-08-30T04:00:50;6.13;;;5.73;;
6023;SDS011;3040;42.654;23.296;2023-08-30T04:03:16;7.33;;;5.37;;
6023;SDS011;3040;42.654;23.296;2023-08-30T04:05:43;6.07;;;5.50;;
6023;SDS011;3040;42.654;23.296;2023-08-30T04:08:10;8.27;;;5.77;;
6023;SDS011;3040;42.654;23.296;2023-08-30T04:10:37;5.83;;;5.10;;
6023;SDS011;3040;42.654;23.296;2023-08-30T04:13:05;8.37;;;5.90;;
6023;SDS011;3040;42.654;23.296;2023-08-30T04:15:32;8.63;;;5.10;;
6023;SDS011;3040;42.654;23.296;2023-08-30T04:18:01;6.50;;;4.60;;
6023;SDS011;3040;42.654;23.296;2023-08-30T04:20:28;7.17;;;5.57;;
6023;SDS011;3040;42.654;23.296;2023-08-30T04:22:55;9.40;;;6.10;;
6023;SDS011;3040;42.654;23.296;2023-08-30T04:25:23;7.00;;;6.40;;
6023;SDS011;3040;42.654;23.296;2023-08-30T04:27:50;6.00;;;5.50;;
6023;SDS011;3040;42.654;23.296;2023-08-30T04:30:16;7.03;;;6.17;;
6023;SDS011;3040;42.654;23.296;2023-08-30T04:32:43;9.00;;;5.90;;
6023;SDS011;3040;42.654;23.296;2023-08-30T04:35:11;5.93;;;5.60;;
6023;SDS011;3040;42.654;23.296;2023-08-30T04:37:38;6.73;;;5.80;;
6023;SDS011;3040;42.654;23.296;2023-08-30T04:40:06;5.33;;;4.83;;
6023;SDS011;3040;42.654;23.296;2023-08-30T04:42:34;4.83;;;4.43;;
6023;SDS011;3040;42.654;23.296;2023-08-30T04:45:01;7.03;;;4.37;;
6023;SDS011;3040;42.654;23.296;2023-08-30T04:47:28;7.67;;;4.23;;
6023;SDS011;3040;42.654;23.296;2023-08-30T04:49:55;8.23;;;4.00;;
6023;SDS011;3040;42.654;23.296;2023-08-30T04:52:23;7.07;;;4.37;;
6023;SDS011;3040;42.654;23.296;2023-08-30T04:54:50;4.90;;;4.47;;
6023;SDS011;3040;42.654;23.296;2023-08-30T04:57:17;3.50;;;3.20;;
6023;SDS011;3040;42.654;23.296;2023-08-30T04:59:44;3.13;;;2.80;;
6023;SDS011;3040;42.654;23.296;2023-08-30T05:02:11;6.03;;;3.30;;
6023;SDS011;3040;42.654;23.296;2023-08-30T05:04:39;4.50;;;3.10;;
6023;SDS011;3040;42.654;23.296;2023-08-30T05:07:06;3.67;;;3.10;;
6023;SDS011;3040;42.654;23.296;2023-08-30T05:09:34;11.67;;;3.27;;
6023;SDS011;3040;42.654;23.296;2023-08-30T05:12:00;4.00;;;3.70;;
6023;SDS011;3040;42.654;23.296;2023-08-30T05:14:28;3.33;;;2.90;;
6023;SDS011;3040;42.654;23.296;2023-08-30T05:16:54;3.50;;;3.13;;
6023;SDS011;3040;42.654;23.296;2023-08-30T05:19:21;4.33;;;2.80;;
6023;SDS011;3040;42.654;23.296;2023-08-30T05:21:48;2.63;;;2.43;;
6023;SDS011;3040;42.654;23.296;2023-08-30T05:24:16;4.67;;;3.17;;
6023;SDS011;3040;42.654;23.296;2023-08-30T05:26:44;5.73;;;3.20;;
6023;SDS011;3040;42.654;23.296;2023-08-30T05:29:13;4.37;;;3.97;;
6023;SDS011;3040;42.654;23.296;2023-08-30T05:31:40;4.50;;;2.90;;
6023;SDS011;3040;42.654;23.296;2023-08-30T05:34:07;7.40;;;3.43;;
6023;SDS011;3040;42.654;23.296;2023-08-30T05:36:33;4.20;;;2.73;;
6023;SDS011;3040;42.654;23.296;2023-08-30T05:39:00;3.27;;;2.90;;
6023;SDS011;3040;42.654;23.296;2023-08-30T05:41:28;2.90;;;2.70;;
6023;SDS011;3040;42.654;23.296;2023-08-30T05:43:56;5.53;;;2.73;;
6023;SDS011;3040;42.654;23.296;2023-08-30T05:46:23;5.57;;;3.17;;
6023;SDS011;3040;42.654;23.296;2023-08-30T05:48:50;4.03;;;2.93;;
6023;SDS011;3040;42.654;23.296;2023-08-30T05:51:16;3.50;;;3.13;;
6023;SDS011;3040;42.654;23.296;2023-08-30T05:53:45;3.07;;;2.70;;
6023;SDS011;3040;42.654;23.296;2023-08-30T05:56:12;3.90;;;3.60;;
6023;SDS011;3040;42.654;23.296;2023-08-30T05:58:38;3.53;;;3.23;;
6023;SDS011;3040;42.654;23.296;2023-08-30T06:01:07;3.97;;;3.67;;
6023;SDS011;3040;42.654;23.296;2023-08-30T06:03:34;4.03;;;3.37;;
6023;SDS011;3040;42.654;23.296;2023-08-30T06:06:00;2.80;;;2.60;;
6023;SDS011;3040;42.654;23.296;2023-08-30T06:08:28;3.80;;;3.50;;
6023;SDS011;3040;42.654;23.296;2023-08-30T06:10:55;4.00;;;3.03;;
6023;SDS011;3040;42.654;23.296;2023-08-30T06:13:21;3.60;;;3.00;;
6023;SDS011;3040;42.654;23.296;2023-08-30T06:15:50;4.30;;;3.30;;
6023;SDS011;3040;42.654;23.296;2023-08-30T06:18:18;3.87;;;3.40;;
6023;SDS011;3040;42.654;23.296;2023-08-30T06:20:47;5.00;;;3.10;;
6023;SDS011;3040;42.654;23.296;2023-08-30T06:23:17;6.57;;;3.30;;
6023;SDS011;3040;42.654;23.296;2023-08-30T06:25:45;6.00;;;3.90;;
6023;SDS011;3040;42.654;23.296;2023-08-30T06:28:19;8.37;;;3.93;;
6023;SDS011;3040;42.654;23.296;2023-08-30T06:30:46;6.97;;;3.20;;
6023;SDS011;3040;42.654;23.296;2023-08-30T06:33:13;3.27;;;2.97;;
6023;SDS011;3040;42.654;23.296;2023-08-30T06:35:41;6.47;;;3.63;;
6023;SDS011;3040;42.654;23.296;2023-08-30T06:38:10;5.23;;;3.17;;
6023;SDS011;3040;42.654;23.296;2023-08-30T06:40:42;9.90;;;3.50;;
6023;SDS011;3040;42.654;23.296;2023-08-30T06:43:09;5.30;;;3.30;;
6023;SDS011;3040;42.654;23.296;2023-08-30T06:45:37;4.70;;;2.90;;
6023;SDS011;3040;42.654;23.296;2023-08-30T06:48:04;5.77;;;3.60;;
6023;SDS011;3040;42.654;23.296;2023-08-30T06:50:32;8.53;;;3.00;;
6023;SDS011;3040;42.654;23.296;2023-08-30T06:53:00;3.73;;;3.23;;
6023;SDS011;3040;42.654;23.296;2023-08-30T06:55:27;4.03;;;3.23;;
6023;SDS011;3040;42.654;23.296;2023-08-30T06:57:54;3.53;;;3.23;;
6023;SDS011;3040;42.654;23.296;2023-08-30T07:00:21;3.73;;;2.90;;
6023;SDS011;3040;42.654;23.296;2023-08-30T07:02:48;3.83;;;3.47;;
6023;SDS011;3040;42.654;23.296;2023-08-30T07:05:15;3.37;;;3.03;;
6023;SDS011;3040;42.654;23.296;2023-08-30T07:07:42;10.63;;;3.37;;
6023;SDS011;3040;42.654;23.296;2023-08-30T07:10:10;3.10;;;2.90;;
6023;SDS011;3040;42.654;23.296;2023-08-30T07:12:37;4.40;;;4.10;;
6023;SDS011;3040;42.654;23.296;2023-08-30T07:15:04;4.07;;;3.70;;
6023;SDS011;3040;42.654;23.296;2023-08-30T07:17:32;3.40;;;3.20;;
6023;SDS011;3040;42.654;23.296;2023-08-30T07:19:58;5.90;;;3.27;;
6023;SDS011;3040;42.654;23.296;2023-08-30T07:22:26;5.90;;;3.40;;
6023;SDS011;3040;42.654;23.296;2023-08-30T07:24:53;4.70;;;3.37;;
6023;SDS011;3040;42.654;23.296;2023-08-30T07:27:21;3.20;;;2.97;;
6023;SDS011;3040;42.654;23.296;2023-08-30T07:29:48;3.37;;;3.07;;
6023;SDS011;3040;42.654;23.296;2023-08-30T07:32:15;3.33;;;3.13;;
6023;SDS011;3040;42.654;23.296;2023-08-30T07:34:41;4.20;;;2.63;;
6023;SDS011;3040;42.654;23.296;2023-08-30T07:37:16;3.43;;;3.13;;
6023;SDS011;3040;42.654;23.296;2023-08-30T07:39:45;3.87;;;3.57;;
6023;SDS011;3040;42.654;23.296;2023-08-30T07:42:12;3.73;;;3.37;;
6023;SDS011;3040;42.654;23.296;2023-08-30T07:44:41;3.77;;;3.50;;
6023;SDS011;3040;42.654;23.296;2023-08-30T07:47:08;3.13;;;2.93;;
6023;SDS011;3040;42.654;23.296;2023-08-30T07:49:34;3.80;;;3.20;;
6023;SDS011;3040;42.654;23.296;2023-08-30T07:52:01;5.20;;;3.57;;
6023;SDS011;3040;42.654;23.296;2023-08-30T07:54:29;3.73;;;3.37;;
6023;SDS011;3040;42.654;23.296;2023-08-30T07:56:57;4.13;;;3.40;;
6023;SDS011;3040;42.654;23.296;2023-08-30T07:59:23;4.03;;;3.77;;
6023;SDS011;3040;42.654;23.296;2023-08-30T08:01:52;2.73;;;2.57;;
6023;SDS011;3040;42.654;23.296;2023-08-30T08:04:18;2.27;;;2.17;;
6023;SDS011;3040;42.654;23.296;2023-08-30T08:06:45;5.60;;;2.73;;
6023;SDS011;3040;42.654;23.296;2023-08-30T08:09:12;2.57;;;2.27;;
6023;SDS011;3040;42.654;23.296;2023-08-30T08:11:39;6.20;;;2.43;;
6023;SDS011;3040;42.654;23.296;2023-08-30T08:14:08;2.80;;;2.60;;
6023;SDS011;3040;42.654;23.296;2023-08-30T08:16:36;4.33;;;2.80;;
6023;SDS011;3040;42.654;23.296;2023-08-30T08:19:04;3.27;;;2.07;;
6023;SDS011;3040;42.654;23.296;2023-08-30T08:21:32;3.90;;;3.60;;
6023;SDS011;3040;42.654;23.296;2023-08-30T08:23:58;3.60;;;2.20;;
6023;SDS011;3040;42.654;23.296;2023-08-30T08:26:25;6.40;;;3.13;;
6023;SDS011;3040;42.654;23.296;2023-08-30T08:28:53;3.97;;;2.73;;
6023;SDS011;3040;42.654;23.296;2023-08-30T08:31:20;3.93;;;2.60;;
6023;SDS011;3040;42.654;23.296;2023-08-30T08:33:49;3.03;;;2.83;;
6023;SDS011;3040;42.654;23.296;2023-08-30T08:36:18;2.97;;;2.70;;
6023;SDS011;3040;42.654;23.296;2023-08-30T08:38:45;3.90;;;3.40;;
6023;SDS011;3040;42.654;23.296;2023-08-30T08:41:12;3.33;;;3.03;;
6023;SDS011;3040;42.654;23.296;2023-08-30T08:43:42;2.97;;;2.73;;
6023;SDS011;3040;42.654;23.296;2023-08-30T08:46:09;3.23;;;3.03;;
6023;SDS011;3040;42.654;23.296;2023-08-30T08:48:39;4.63;;;3.40;;
6023;SDS011;3040;42.654;23.296;2023-08-30T08:51:09;3.40;;;3.10;;
6023;SDS011;3040;42.654;23.296;2023-08-30T08:53:38;9.80;;;3.60;;
6023;SDS011;3040;42.654;23.296;2023-08-30T08:56:05;3.70;;;2.90;;
6023;SDS011;3040;42.654;23.296;2023-08-30T08:58:34;2.87;;;2.70;;
6023;SDS011;3040;42.654;23.296;2023-08-30T09:01:03;2.70;;;2.50;;
6023;SDS011;3040;42.654;23.296;2023-08-30T09:03:30;3.73;;;3.47;;
6023;SDS011;3040;42.654;23.296;2023-08-30T09:05:59;3.17;;;2.87;;
6023;SDS011;3040;42.654;23.296;2023-08-30T09:08:28;3.73;;;3.17;;
6023;SDS011;3040;42.654;23.296;2023-08-30T09:10:57;3.50;;;3.20;;
6023;SDS011;3040;42.654;23.296;2023-08-30T09:13:23;4.30;;;3.73;;
6023;SDS011;3040;42.654;23.296;2023-08-30T09:15:51;4.40;;;4.17;;
6023;SDS011;3040;42.654;23.296;2023-08-30T09:18:18;4.87;;;4.27;;
6023;SDS011;3040;42.654;23.296;2023-08-30T09:20:45;6.47;;;4.33;;
6023;SDS011;3040;42.654;23.296;2023-08-30T09:23:17;4.70;;;4.40;;
6023;SDS011;3040;42.654;23.296;2023-08-30T09:25:45;4.13;;;3.83;;
6023;SDS011;3040;42.654;23.296;2023-08-30T09:28:13;3.97;;;3.67;;
6023;SDS011;3040;42.654;23.296;2023-08-30T09:30:40;6.73;;;4.43;;
6023;SDS011;3040;42.654;23.296;2023-08-30T09:33:07;4.60;;;4.17;;
6023;SDS011;3040;42.654;23.296;2023-08-30T09:35:39;5.13;;;4.27;;
6023;SDS011;3040;42.654;23.296;2023-08-30T09:38:15;7.77;;;4.60;;
6023;SDS011;3040;42.654;23.296;2023-08-30T09:40:43;4.37;;;3.97;;
6023;SDS011;3040;42.654;23.296;2023-08-30T09:43:10;4.67;;;4.27;;
6023;SDS011;3040;42.654;23.296;2023-08-30T09:45:39;4.97;;;4.27;;
6023;SDS011;3040;42.654;23.296;2023-08-30T09:48:06;9.80;;;5.10;;
6023;SDS011;3040;42.654;23.296;2023-08-30T09:50:34;4.97;;;4.67;;
6023;SDS011;3040;42.654;23.296;2023-08-30T09:53:02;5.23;;;4.80;;
6023;SDS011;3040;42.654;23.296;2023-08-30T09:55:33;4.93;;;4.33;;
6023;SDS011;3040;42.654;23.296;2023-08-30T09:58:01;7.57;;;5.30;;
6023;SDS011;3040;42.654;23.296;2023-08-30T10:00:29;10.30;;;4.33;;
6023;SDS011;3040;42.654;23.296;2023-08-30T10:02:59;4.67;;;4.37;;
6023;SDS011;3040;42.654;23.296;2023-08-30T10:05:26;4.50;;;4.10;;
6023;SDS011;3040;42.654;23.296;2023-08-30T10:07:53;8.67;;;5.13;;
6023;SDS011;3040;42.654;23.296;2023-08-30T10:10:21;5.80;;;5.23;;
6023;SDS011;3040;42.654;23.296;2023-08-30T10:12:48;5.30;;;4.97;;
6023;SDS011;3040;42.654;23.296;2023-08-30T10:15:16;4.60;;;4.20;;
6023;SDS011;3040;42.654;23.296;2023-08-30T10:17:44;6.20;;;5.03;;
6023;SDS011;3040;42.654;23.296;2023-08-30T10:20:13;8.27;;;5.07;;
6023;SDS011;3040;42.654;23.296;2023-08-30T10:22:41;6.90;;;5.27;;
6023;SDS011;3040;42.654;23.296;2023-08-30T10:25:10;6.73;;;4.53;;
6023;SDS011;3040;42.654;23.296;2023-08-30T10:27:42;7.13;;;5.17;;
6023;SDS011;3040;42.654;23.296;2023-08-30T10:30:11;8.53;;;4.70;;
6023;SDS011;3040;42.654;23.296;2023-08-30T10:32:39;4.87;;;4.47;;
6023;SDS011;3040;42.654;23.296;2023-08-30T10:35:06;6.87;;;4.50;;
6023;SDS011;3040;42.654;23.296;2023-08-30T10:37:38;5.53;;;5.17;;
6023;SDS011;3040;42.654;23.296;2023-08-30T10:40:06;9.40;;;4.93;;
6023;SDS011;3040;42.654;23.296;2023-08-30T10:42:34;7.87;;;4.70;;
6023;SDS011;3040;42.654;23.296;2023-08-30T10:45:02;5.10;;;4.20;;
6023;SDS011;3040;42.654;23.296;2023-08-30T10:47:32;7.70;;;4.37;;
6023;SDS011;3040;42.654;23.296;2023-08-30T10:50:04;5.00;;;4.50;;
6023;SDS011;3040;42.654;23.296;2023-08-30T10:52:32;9.80;;;4.70;;
6023;SDS011;3040;42.654;23.296;2023-08-30T10:55:06;5.70;;;4.57;;
6023;SDS011;3040;42.654;23.296;2023-08-30T10:57:34;6.03;;;3.93;;
6023;SDS011;3040;42.654;23.296;2023-08-30T11:00:04;6.83;;;4.93;;
6023;SDS011;3040;42.654;23.296;2023-08-30T11:02:33;6.80;;;4.30;;
6023;SDS011;3040;42.654;23.296;2023-08-30T11:05:01;10.17;;;5.03;;
6023;SDS011;3040;42.654;23.296;2023-08-30T11:07:29;8.93;;;4.80;;
6023;SDS011;3040;42.654;23.296;2023-08-30T11:09:56;4.70;;;4.50;;
6023;SDS011;3040;42.654;23.296;2023-08-30T11:12:25;4.47;;;4.17;;
6023;SDS011;3040;42.654;23.296;2023-08-30T11:14:52;20.87;;;5.53;;
6023;SDS011;3040;42.654;23.296;2023-08-30T11:17:19;5.10;;;4.70;;
6023;SDS011;3040;42.654;23.296;2023-08-30T11:19:50;5.27;;;4.97;;
6023;SDS011;3040;42.654;23.296;2023-08-30T11:22:23;9.07;;;5.33;;
6023;SDS011;3040;42.654;23.296;2023-08-30T11:24:50;8.53;;;5.03;;
6023;SDS011;3040;42.654;23.296;2023-08-30T11:27:18;12.50;;;5.23;;
6023;SDS011;3040;42.654;23.296;2023-08-30T11:29:46;5.87;;;5.10;;
6023;SDS011;3040;42.654;23.296;2023-08-30T11:32:13;4.10;;;3.80;;
6023;SDS011;3040;42.654;23.296;2023-08-30T11:34:39;22.20;;;4.90;;
6023;SDS011;3040;42.654;23.296;2023-08-30T11:37:07;5.10;;;4.47;;
6023;SDS011;3040;42.654;23.296;2023-08-30T11:39:34;5.80;;;4.57;;
6023;SDS011;3040;42.654;23.296;2023-08-30T11:42:03;5.00;;;4.60;;
6023;SDS011;3040;42.654;23.296;2023-08-30T11:44:31;27.87;;;5.80;;
6023;SDS011;3040;42.654;23.296;2023-08-30T11:47:00;14.77;;;5.40;;
6023;SDS011;3040;42.654;23.296;2023-08-30T11:49:27;18.03;;;5.03;;
6023;SDS011;3040;42.654;23.296;2023-08-30T11:51:54;4.50;;;4.20;;
6023;SDS011;3040;42.654;23.296;2023-08-30T11:54:23;6.27;;;4.23;;
6023;SDS011;3040;42.654;23.296;2023-08-30T11:56:50;25.17;;;5.90;;
6023;SDS011;3040;42.654;23.296;2023-08-30T11:59:18;4.93;;;4.53;;
6023;SDS011;3040;42.654;23.296;2023-08-30T12:01:45;4.93;;;4.27;;
6023;SDS011;3040;42.654;23.296;2023-08-30T12:04:14;5.20;;;4.87;;
6023;SDS011;3040;42.654;23.296;2023-08-30T12:06:40;14.43;;;5.13;;
6023;SDS011;3040;42.654;23.296;2023-08-30T12:09:11;61.70;;;6.97;;
6023;SDS011;3040;42.654;23.296;2023-08-30T12:11:38;5.10;;;4.63;;
6023;SDS011;3040;42.654;23.296;2023-08-30T12:14:05;7.87;;;5.00;;
6023;SDS011;3040;42.654;23.296;2023-08-30T12:16:32;9.63;;;4.90;;
6023;SDS011;3040;42.654;23.296;2023-08-30T12:19:06;7.43;;;4.87;;
6023;SDS011;3040;42.654;23.296;2023-08-30T12:21:40;5.13;;;4.73;;
6023;SDS011;3040;42.654;23.296;2023-08-30T12:24:07;17.97;;;6.00;;
6023;SDS011;3040;42.654;23.296;2023-08-30T12:26:34;5.67;;;5.27;;
6023;SDS011;3040;42.654;23.296;2023-08-30T12:29:03;5.50;;;4.70;;
6023;SDS011;3040;42.654;23.296;2023-08-30T12:31:30;15.13;;;5.50;;
6023;SDS011;3040;42.654;23.296;2023-08-30T12:33:57;11.73;;;5.10;;
6023;SDS011;3040;42.654;23.296;2023-08-30T12:36:24;4.83;;;4.53;;
6023;SDS011;3040;42.654;23.296;2023-08-30T12:38:52;6.13;;;5.33;;
6023;SDS011;3040;42.654;23.296;2023-08-30T12:41:20;5.80;;;5.13;;
6023;SDS011;3040;42.654;23.296;2023-08-30T12:43:48;5.90;;;5.23;;
6023;SDS011;3040;42.654;23.296;2023-08-30T12:46:16;7.17;;;5.03;;
6023;SDS011;3040;42.654;23.296;2023-08-30T12:48:43;5.60;;;4.97;;
6023;SDS011;3040;42.654;23.296;2023-08-30T12:51:09;5.27;;;4.87;;
6023;SDS011;3040;42.654;23.296;2023-08-30T12:53:38;5.67;;;5.17;;
6023;SDS011;3040;42.654;23.296;2023-08-30T12:56:06;4.90;;;4.57;;
6023;SDS011;3040;42.654;23.296;2023-08-30T12:58:33;5.53;;;5.10;;
6023;SDS011;3040;42.654;23.296;2023-08-30T13:01:00;7.47;;;5.23;;
6023;SDS011;3040;42.654;23.296;2023-08-30T13:03:27;5.13;;;4.73;;
6023;SDS011;3040;42.654;23.296;2023-08-30T13:05:54;6.57;;;4.83;;
6023;SDS011;3040;42.654;23.296;2023-08-30T13:08:21;5.17;;;4.87;;
6023;SDS011;3040;42.654;23.296;2023-08-30T13:10:48;19.63;;;4.90;;
6023;SDS011;3040;42.654;23.296;2023-08-30T13:13:16;5.17;;;4.60;;
6023;SDS011;3040;42.654;23.296;2023-08-30T13:15:43;5.07;;;4.50;;
6023;SDS011;3040;42.654;23.296;2023-08-30T13:18:10;4.43;;;4.13;;
6023;SDS011;3040;42.654;23.296;2023-08-30T13:20:37;4.27;;;3.87;;
6023;SDS011;3040;42.654;23.296;2023-08-30T13:23:05;4.47;;;4.27;;
6023;SDS011;3040;42.654;23.296;2023-08-30T13:25:32;4.47;;;4.13;;
6023;SDS011;3040;42.654;23.296;2023-08-30T13:27:59;9.03;;;4.87;;
6023;SDS011;3040;42.654;23.296;2023-08-30T13:30:27;6.23;;;4.00;;
6023;SDS011;3040;42.654;23.296;2023-08-30T13:32:53;4.23;;;3.83;;
6023;SDS011;3040;42.654;23.296;2023-08-30T13:35:20;3.87;;;3.67;;
6023;SDS011;3040;42.654;23.296;2023-08-30T13:37:47;4.30;;;4.00;;
6023;SDS011;3040;42.654;23.296;2023-08-30T13:40:15;4.13;;;3.70;;
6023;SDS011;3040;42.654;23.296;2023-08-30T13:42:42;5.93;;;4.00;;
6023;SDS011;3040;42.654;23.296;2023-08-30T13:45:09;15.70;;;4.30;;
6023;SDS011;3040;42.654;23.296;2023-08-30T13:47:40;4.40;;;4.00;;
6023;SDS011;3040;42.654;23.296;2023-08-30T13:50:06;4.70;;;3.97;;
6023;SDS011;3040;42.654;23.296;2023-08-30T13:52:34;9.43;;;4.40;;
6023;SDS011;3040;42.654;23.296;2023-08-30T13:55:00;5.07;;;3.83;;
6023;SDS011;3040;42.654;23.296;2023-08-30T13:57:27;4.57;;;4.20;;
6023;SDS011;3040;42.654;23.296;2023-08-30T13:59:54;4.30;;;3.57;;
6023;SDS011;3040;42.654;23.296;2023-08-30T14:02:21;4.03;;;3.73;;
6023;SDS011;3040;42.654;23.296;2023-08-30T14:04:49;5.17;;;3.67;;
6023;SDS011;3040;42.654;23.296;2023-08-30T14:07:15;4.70;;;4.03;;
6023;SDS011;3040;42.654;23.296;2023-08-30T14:09:42;15.90;;;5.17;;
6023;SDS011;3040;42.654;23.296;2023-08-30T14:12:09;17.37;;;4.63;;
6023;SDS011;3040;42.654;23.296;2023-08-30T14:14:36;5.30;;;3.60;;
6023;SDS011;3040;42.654;23.296;2023-08-30T14:17:03;4.40;;;3.50;;
6023;SDS011;3040;42.654;23.296;2023-08-30T14:19:30;6.73;;;3.67;;
6023;SDS011;3040;42.654;23.296;2023-08-30T14:22:01;3.87;;;3.67;;
6023;SDS011;3040;42.654;23.296;2023-08-30T14:24:29;4.13;;;3.53;;
6023;SDS011;3040;42.654;23.296;2023-08-30T14:26:56;3.30;;;3.07;;
6023;SDS011;3040;42.654;23.296;2023-08-30T14:29:22;3.17;;;2.97;;
6023;SDS011;3040;42.654;23.296;2023-08-30T14:31:49;4.33;;;3.57;;
6023;SDS011;3040;42.654;23.296;2023-08-30T14:34:16;6.00;;;3.00;;
6023;SDS011;3040;42.654;23.296;2023-08-30T14:36:43;7.93;;;3.47;;
6023;SDS011;3040;42.654;23.296;2023-08-30T14:39:12;7.00;;;3.97;;
6023;SDS011;3040;42.654;23.296;2023-08-30T14:41:39;2.90;;;2.77;;
6023;SDS011;3040;42.654;23.296;2023-08-30T14:44:06;2.73;;;2.63;;
6023;SDS011;3040;42.654;23.296;2023-08-30T14:46:33;5.60;;;2.70;;
6023;SDS011;3040;42.654;23.296;2023-08-30T14:49:00;5.43;;;3.10;;
6023;SDS011;3040;42.654;23.296;2023-08-30T14:51:27;2.93;;;2.73;;
6023;SDS011;3040;42.654;23.296;2023-08-30T14:53:53;2.80;;;2.60;;
6023;SDS011;3040;42.654;23.296;2023-08-30T14:56:21;2.73;;;2.53;;
6023;SDS011;3040;42.654;23.296;2023-08-30T14:58:48;2.43;;;2.27;;
6023;SDS011;3040;42.654;23.296;2023-08-30T15:01:16;3.50;;;3.20;;
6023;SDS011;3040;42.654;23.296;2023-08-30T15:03:42;4.50;;;2.63;;